Ashland, WV

8:58 AM EST on February 27, 2015 (GMT -0500)
RAWS ELKHORN WV US | Change Station
CLOSE
Current Station
Personal Weather Station
Location: Welch, WV
Elevation: 2100 ft
Nearby Weather Stations

Elev 2100 ft 37.40 °N, 81.54 °W | Updated 41 minutes ago

Snow
Snow
18 °F
Feels Like 10 °F
N
6
Wind Variable Wind from West
Gusts 14.0 mph

Today
High -- | Low -- °F
--% Chance of Precip.
Yesterday
High -- | Low -- °F
Precip. -- in
6:59 AM 6:17 PM
Waxing Gibbous, 69% visible
Pressure 30.36 in
Visibility 2.0 miles
Clouds Few 1100 ft
Overcast 2700 ft
Windchill 10 °F
Dew Point 11 °F
Humidity 73%
Rainfall 0.19 in
Snow Depth Not available.
UV 0 out of 12
Pollen .70 out of 12
Air Quality Not available.
Flu Activity Not available.
METAR KBLF 271352Z AUTO 32005KT 2SM -SN FEW011 OVC027 M07/M12 A3027 RMK AO2 SLP281 P0000 T10721117

More Conditions Fewer Conditions

Pressure 30.36 in
Visibility 2.0 miles
Clouds Few 1100 ft
Overcast 2700 ft
Windchill 10 °F
Dew Point 11 °F
Humidity 73%
Rainfall 0.19 in
Snow Depth Not available.
UV 0 out of 12
Pollen .70 out of 12
Air Quality Not available.
Flu Activity Not available.
METAR KBLF 271352Z AUTO 32005KT 2SM -SN FEW011 OVC027 M07/M12 A3027 RMK AO2 SLP281 P0000 T10721117

More Conditions Fewer Conditions

10-Day Weather Forecast

Almanac

Astronomy

Feb. 27, 2015 Rise Set
Actual Time
Civil Twilight
Nautical Twilight
Astronomical Twilight
Moon
Length of Visible Light
Length of Day
Tomorrow will be .
, % of the Moon is Illuminated

Today's Extremes

State Highs State Lows

Community

WunderPhotos

Upload Photos

1,800,672 photos uploaded!

WunderBlogs® & News

Nearby

Air Quality

  Air Quality AQ Index Pollutant
Not available.

Snow Depth

Station Depth Elevation

Earthquake Activity

City Distance Mag. Time & Date
Minimum magnitude displayed is 2.5.

Coastal Water Temperatures

Place Temperature

Nearby Weather Stations